Time;durP1;ratioP1;P1;durP2;ratioP2;P2;SDS_P1;SDS_P2;PMS_P1;PMS_P2;Temp;Humidity;BMP_temperature;BMP_pressure;BME280_temperature;BME280_humidity;BME280_pressure;Samples;Min_cycle;Max_cycle;Signal;HPM_P1;HPM_P2
2023/09/26 00:00:20;;;;;;;0.40;0.30;;;21.00;73.80;;;;;;5063538;28;20043;-75
2023/09/26 00:02:46;;;;;;;0.98;0.65;;;21.00;73.80;;;;;;5059901;28;20049;-75
2023/09/26 00:05:12;;;;;;;0.60;0.40;;;21.00;73.80;;;;;;5062928;28;20068;-75
2023/09/26 00:07:38;;;;;;;0.50;0.50;;;21.00;73.80;;;;;;5062068;28;20033;-75
2023/09/26 00:10:05;;;;;;;0.55;0.50;;;21.00;73.80;;;;;;5059599;28;20028;-75
2023/09/26 00:12:31;;;;;;;0.30;0.30;;;21.00;74.40;;;;;;5062516;28;20123;-75
2023/09/26 00:14:56;;;;;;;0.75;0.45;;;21.00;73.70;;;;;;5063580;28;20108;-75
2023/09/26 00:17:22;;;;;;;0.47;0.47;;;21.00;73.80;;;;;;5061544;28;20044;-75
2023/09/26 00:19:48;;;;;;;0.52;0.50;;;21.00;73.80;;;;;;5060105;28;20056;-75
2023/09/26 00:22:13;;;;;;;0.70;0.40;;;21.00;74.60;;;;;;5064832;28;20043;-75
2023/09/26 00:24:39;;;;;;;0.52;0.50;;;21.00;74.00;;;;;;5062874;28;20032;-75
2023/09/26 00:27:05;;;;;;;0.40;0.40;;;21.00;73.70;;;;;;5060582;28;20418;-75
2023/09/26 00:29:31;;;;;;;0.50;0.50;;;21.00;73.80;;;;;;5055962;28;20510;-75
2023/09/26 00:31:59;;;;;;;0.50;0.50;;;21.00;74.00;;;;;;5075022;28;20068;-75
2023/09/26 00:34:28;;;;;;;0.40;0.40;;;21.00;73.90;;;;;;5063243;28;20138;-75
2023/09/26 00:36:54;;;;;;;0.50;0.50;;;21.00;73.80;;;;;;5055971;28;20064;-75
2023/09/26 00:39:21;;;;;;;0.40;0.40;;;21.00;73.80;;;;;;5056436;28;20060;-76
2023/09/26 00:41:46;;;;;;;0.65;0.50;;;21.00;73.90;;;;;;5047227;28;20458;-75
2023/09/26 00:44:12;;;;;;;0.63;0.52;;;21.00;73.80;;;;;;5059391;28;20582;-75
2023/09/26 00:46:39;;;;;;;0.50;0.50;;;21.00;73.90;;;;;;5061618;28;20045;-75
2023/09/26 00:49:06;;;;;;;0.40;0.40;;;21.00;73.80;;;;;;5057208;28;20116;-75
2023/09/26 00:51:32;;;;;;;0.45;0.35;;;21.00;73.70;;;;;;5058877;28;20033;-75
2023/09/26 00:53:58;;;;;;;0.38;0.38;;;21.00;73.80;;;;;;5059854;28;20044;-75
2023/09/26 00:56:24;;;;;;;0.40;0.40;;;21.00;73.60;;;;;;5051333;28;20468;-75
2023/09/26 00:58:50;;;;;;;0.43;0.43;;;21.00;73.70;;;;;;5059902;28;20628;-75
2023/09/26 01:01:15;;;;;;;0.50;0.50;;;21.00;73.60;;;;;;5047628;28;20422;-75
2023/09/26 01:03:41;;;;;;;0.40;0.40;;;21.00;73.60;;;;;;5059863;28;20522;-75
2023/09/26 01:06:06;;;;;;;0.40;0.40;;;21.00;73.70;;;;;;5045409;28;20040;-75
2023/09/26 01:08:32;;;;;;;0.73;0.73;;;21.00;73.70;;;;;;5059657;28;20040;-75
2023/09/26 01:10:58;;;;;;;0.90;0.30;;;21.00;73.60;;;;;;5056301;28;20123;-75
2023/09/26 01:13:24;;;;;;;0.50;0.50;;;21.00;73.60;;;;;;5062191;28;20064;-75
2023/09/26 01:15:50;;;;;;;0.90;0.60;;;21.00;73.50;;;;;;5057130;28;20059;-75
2023/09/26 01:18:16;;;;;;;0.63;0.57;;;21.00;73.50;;;;;;5061420;28;20510;-75
2023/09/26 01:20:43;;;;;;;0.30;0.30;;;21.00;73.50;;;;;;5060213;28;20056;-75
2023/09/26 01:23:10;;;;;;;0.70;0.63;;;21.00;73.50;;;;;;5061995;28;20379;-75
2023/09/26 01:25:36;;;;;;;0.40;0.40;;;21.00;73.50;;;;;;5063000;28;20510;-76
2023/09/26 01:28:08;;;;;;;0.40;0.40;;;21.00;73.60;;;;;;5063036;28;20036;-75
2023/09/26 01:30:37;;;;;;;0.35;0.35;;;21.00;73.60;;;;;;5056972;28;20114;-75
2023/09/26 01:33:04;;;;;;;0.50;0.50;;;21.00;73.60;;;;;;5061709;28;20510;-76
2023/09/26 01:35:29;;;;;;;1.13;0.50;;;21.00;73.50;;;;;;5062533;28;20036;-75
2023/09/26 01:37:55;;;;;;;0.60;0.52;;;21.00;73.50;;;;;;5055241;28;20572;-75
2023/09/26 01:40:20;;;;;;;0.75;0.50;;;21.00;73.60;;;;;;5088820;28;20052;-75
2023/09/26 01:42:46;;;;;;;0.40;0.40;;;21.00;73.50;;;;;;5060765;28;20128;-75
2023/09/26 01:45:11;;;;;;;0.40;0.40;;;21.00;73.60;;;;;;5059120;28;20040;-75
2023/09/26 01:47:48;;;;;;;0.90;0.60;;;21.00;73.60;;;;;;5058443;28;20351;-75
2023/09/26 01:50:14;;;;;;;0.50;0.40;;;21.00;73.60;;;;;;5057248;28;20555;-75
2023/09/26 01:52:40;;;;;;;0.43;0.43;;;21.00;73.50;;;;;;5058034;28;20044;-75
2023/09/26 01:55:07;;;;;;;0.55;0.50;;;21.00;73.60;;;;;;5058209;28;20041;-75
2023/09/26 01:57:33;;;;;;;0.40;0.40;;;21.00;73.50;;;;;;5053192;28;20545;-75
2023/09/26 02:00:06;;;;;;;0.55;0.40;;;21.00;73.60;;;;;;5055983;28;20065;-75
2023/09/26 02:02:34;;;;;;;1.15;0.50;;;21.00;73.60;;;;;;5059093;28;20132;-75
2023/09/26 02:04:59;;;;;;;0.40;0.40;;;21.00;73.60;;;;;;5058754;28;20112;-75
2023/09/26 02:07:25;;;;;;;0.50;0.50;;;21.00;73.50;;;;;;5062076;28;20045;-75
2023/09/26 02:09:50;;;;;;;0.35;0.35;;;21.00;73.50;;;;;;5059862;28;20136;-75
2023/09/26 02:12:16;;;;;;;0.82;0.50;;;21.00;73.60;;;;;;5060498;28;20415;-75
2023/09/26 02:14:41;;;;;;;0.77;0.50;;;21.00;73.60;;;;;;5058322;28;20040;-75
2023/09/26 02:17:08;;;;;;;0.30;0.30;;;21.00;73.60;;;;;;5060948;28;20044;-75
2023/09/26 02:19:34;;;;;;;0.50;0.50;;;21.00;73.60;;;;;;5061159;28;20052;-75
2023/09/26 02:21:59;;;;;;;0.63;0.60;;;21.00;73.80;;;;;;5063569;28;20045;-75
2023/09/26 02:24:25;;;;;;;0.77;0.55;;;21.00;73.60;;;;;;5063604;28;20045;-75
2023/09/26 02:26:51;;;;;;;0.43;0.40;;;21.00;73.50;;;;;;5062879;28;20071;-75
2023/09/26 02:29:16;;;;;;;0.52;0.52;;;21.00;73.60;;;;;;5061550;28;20528;-75
2023/09/26 02:31:42;;;;;;;0.50;0.50;;;21.00;73.50;;;;;;5061533;28;20041;-75
2023/09/26 02:34:07;;;;;;;0.50;0.50;;;21.00;73.60;;;;;;5062046;28;20021;-75
2023/09/26 02:36:33;;;;;;;0.60;0.60;;;21.00;73.50;;;;;;5066256;28;20062;-75
2023/09/26 02:38:58;;;;;;;0.52;0.52;;;21.00;73.60;;;;;;5062032;28;20030;-75
2023/09/26 02:41:24;;;;;;;0.95;0.95;;;21.00;73.60;;;;;;5064144;28;20047;-75
2023/09/26 02:43:54;;;;;;;0.50;0.50;;;21.00;73.70;;;;;;5064101;28;20063;-75
2023/09/26 02:46:20;;;;;;;0.68;0.50;;;21.00;73.60;;;;;;5059957;28;20135;-75
2023/09/26 02:48:45;;;;;;;0.55;0.55;;;21.00;73.50;;;;;;5063712;28;20131;-75
2023/09/26 02:51:11;;;;;;;0.45;0.45;;;21.00;73.50;;;;;;5059328;28;20040;-75
2023/09/26 02:53:37;;;;;;;0.73;0.60;;;21.00;73.50;;;;;;5062022;28;20123;-75
2023/09/26 02:56:02;;;;;;;0.55;0.55;;;21.00;73.40;;;;;;5059503;28;20414;-75
2023/09/26 02:58:28;;;;;;;0.98;0.52;;;21.00;73.40;;;;;;5067198;28;20090;-75
2023/09/26 03:00:53;;;;;;;0.77;0.77;;;21.00;73.40;;;;;;5061233;28;20047;-75
2023/09/26 03:03:19;;;;;;;0.40;0.40;;;21.00;73.40;;;;;;5056690;28;20552;-75
2023/09/26 03:05:52;;;;;;;0.70;0.60;;;21.00;73.50;;;;;;5059451;28;20098;-75
2023/09/26 03:08:17;;;;;;;0.50;0.50;;;21.00;73.50;;;;;;5061612;28;20127;-75
2023/09/26 03:10:43;;;;;;;0.73;0.73;;;21.00;73.50;;;;;;5061326;28;20449;-75
2023/09/26 03:13:09;;;;;;;0.98;0.80;;;21.00;73.40;;;;;;5065785;28;20032;-75
2023/09/26 03:15:34;;;;;;;0.60;0.50;;;21.00;73.40;;;;;;5063416;28;20029;-75
2023/09/26 03:18:00;;;;;;;0.60;0.57;;;21.00;73.50;;;;;;5059478;28;20507;-75
2023/09/26 03:20:26;;;;;;;0.68;0.55;;;21.00;73.40;;;;;;5065093;28;20043;-75
2023/09/26 03:22:51;;;;;;;0.60;0.60;;;20.90;73.30;;;;;;5061127;28;20395;-74
2023/09/26 03:25:17;;;;;;;0.60;0.60;;;21.00;73.40;;;;;;5066386;28;20074;-75
2023/09/26 03:27:45;;;;;;;0.60;0.50;;;21.00;73.30;;;;;;5063395;28;20461;-75
2023/09/26 03:30:13;;;;;;;0.80;0.70;;;21.00;73.40;;;;;;5061760;28;20055;-75
2023/09/26 03:32:39;;;;;;;0.50;0.50;;;21.00;73.30;;;;;;5057740;28;20036;-75
2023/09/26 03:35:05;;;;;;;0.40;0.40;;;21.00;73.30;;;;;;5060546;28;20503;-75
2023/09/26 03:37:30;;;;;;;1.10;0.57;;;20.90;73.10;;;;;;5063929;28;20049;-75
2023/09/26 03:39:56;;;;;;;0.60;0.50;;;21.00;73.20;;;;;;5059813;28;20529;-75
2023/09/26 03:42:22;;;;;;;0.65;0.60;;;21.00;73.30;;;;;;5059955;28;20048;-75
2023/09/26 03:44:47;;;;;;;0.40;0.40;;;21.00;73.30;;;;;;5058449;28;20384;-75
2023/09/26 03:47:13;;;;;;;0.52;0.52;;;20.90;73.90;;;;;;5060824;28;20048;-75
2023/09/26 03:49:39;;;;;;;0.40;0.30;;;21.00;73.20;;;;;;5062355;28;20123;-75
2023/09/26 03:52:04;;;;;;;0.70;0.70;;;21.00;73.30;;;;;;5064510;28;20120;-75
2023/09/26 03:54:30;;;;;;;0.30;0.30;;;20.90;73.00;;;;;;5063000;28;20059;-75
2023/09/26 03:56:56;;;;;;;0.40;0.40;;;21.00;73.10;;;;;;5062975;28;20048;-75
2023/09/26 03:59:21;;;;;;;0.50;0.50;;;20.90;73.10;;;;;;5064367;28;20150;-75
2023/09/26 04:01:47;;;;;;;0.55;0.52;;;20.90;73.00;;;;;;5061585;28;20048;-75
2023/09/26 04:04:13;;;;;;;0.40;0.40;;;21.00;73.20;;;;;;5060707;28;20045;-75
2023/09/26 04:06:41;;;;;;;0.50;0.43;;;21.00;73.20;;;;;;5046930;28;20055;-75
2023/09/26 04:09:07;;;;;;;0.70;0.60;;;21.00;73.20;;;;;;5060295;28;20036;-75
2023/09/26 04:11:32;;;;;;;0.40;0.40;;;21.00;73.20;;;;;;5058835;28;20055;-75
2023/09/26 04:13:59;;;;;;;0.40;0.40;;;21.00;73.10;;;;;;5060200;28;20043;-75
2023/09/26 04:16:24;;;;;;;0.77;0.52;;;21.00;73.10;;;;;;5063894;28;20037;-75
2023/09/26 04:18:50;;;;;;;0.90;0.75;;;20.90;73.20;;;;;;5059072;28;20045;-75
2023/09/26 04:21:16;;;;;;;0.50;0.50;;;21.00;73.00;;;;;;5060482;28;20055;-75
2023/09/26 04:23:41;;;;;;;0.57;0.55;;;21.00;73.10;;;;;;5064972;28;20506;-75
2023/09/26 04:26:14;;;;;;;0.50;0.50;;;21.00;73.10;;;;;;5059355;28;20056;-75
2023/09/26 04:28:45;;;;;;;0.63;0.63;;;21.00;73.40;;;;;;5060829;28;20075;-75
2023/09/26 04:31:14;;;;;;;0.60;0.60;;;20.90;73.10;;;;;;5062223;28;20044;-75
2023/09/26 04:33:40;;;;;;;0.85;0.50;;;20.90;73.50;;;;;;5060230;28;20103;-75
2023/09/26 04:36:06;;;;;;;0.70;0.50;;;20.90;73.10;;;;;;5056943;28;20483;-75
2023/09/26 04:38:31;;;;;;;0.55;0.55;;;21.00;73.20;;;;;;5058493;28;20047;-75
2023/09/26 04:41:03;;;;;;;0.50;0.50;;;20.90;73.40;;;;;;5057533;28;20106;-75
2023/09/26 04:43:30;;;;;;;0.70;0.70;;;20.90;73.40;;;;;;5060189;28;20608;-75
2023/09/26 04:45:55;;;;;;;0.30;0.30;;;20.90;73.10;;;;;;5062244;28;20045;-75
2023/09/26 04:48:21;;;;;;;0.50;0.50;;;20.90;73.30;;;;;;5058076;28;20490;-75
2023/09/26 04:50:47;;;;;;;0.70;0.70;;;20.90;74.20;;;;;;5059985;28;20193;-75
2023/09/26 04:53:13;;;;;;;0.63;0.40;;;20.90;73.60;;;;;;5060978;28;20055;-75
2023/09/26 04:55:39;;;;;;;0.38;0.32;;;20.90;73.20;;;;;;5067814;28;20044;-75
2023/09/26 04:58:04;;;;;;;0.40;0.40;;;20.90;73.10;;;;;;5059043;28;20455;-75
2023/09/26 05:00:31;;;;;;;0.57;0.57;;;21.00;73.00;;;;;;5048946;28;20075;-75
2023/09/26 05:02:57;;;;;;;0.50;0.50;;;20.90;73.00;;;;;;5059635;28;20041;-75
2023/09/26 05:05:23;;;;;;;0.50;0.30;;;20.90;73.30;;;;;;5059075;28;20044;-75
2023/09/26 05:07:49;;;;;;;0.55;0.52;;;20.90;73.10;;;;;;5062180;28;20041;-75
2023/09/26 05:10:15;;;;;;;0.40;0.40;;;20.90;73.00;;;;;;5061731;28;20052;-75
2023/09/26 05:12:41;;;;;;;1.05;0.60;;;20.90;72.90;;;;;;5060793;28;20394;-75
2023/09/26 05:15:16;;;;;;;0.52;0.45;;;20.90;73.40;;;;;;5055051;28;20051;-75
2023/09/26 05:17:49;;;;;;;0.47;0.47;;;20.90;72.90;;;;;;5060223;28;20035;-75
2023/09/26 05:20:15;;;;;;;0.50;0.50;;;20.90;73.50;;;;;;5051537;28;20059;-75
2023/09/26 05:22:46;;;;;;;0.50;0.50;;;20.90;73.50;;;;;;5059111;28;20036;-75
2023/09/26 05:25:12;;;;;;;0.55;0.55;;;21.00;73.30;;;;;;5059952;28;20044;-75
2023/09/26 05:27:38;;;;;;;0.40;0.40;;;20.90;73.40;;;;;;5060821;28;20040;-75
2023/09/26 05:30:07;;;;;;;0.47;0.40;;;20.90;73.40;;;;;;5060277;28;20040;-75
2023/09/26 05:32:33;;;;;;;0.52;0.50;;;20.90;73.30;;;;;;5055981;28;20102;-75
2023/09/26 05:34:59;;;;;;;0.50;0.50;;;20.90;73.20;;;;;;5061519;28;20441;-75
2023/09/26 05:37:24;;;;;;;0.30;0.30;;;20.90;73.30;;;;;;5062707;28;20079;-75
2023/09/26 05:39:50;;;;;;;0.63;0.40;;;20.90;73.40;;;;;;5089290;28;20433;-75
2023/09/26 05:42:16;;;;;;;0.40;0.40;;;20.90;73.50;;;;;;5058253;28;20048;-75
2023/09/26 05:44:42;;;;;;;0.40;0.40;;;20.90;73.50;;;;;;5055533;28;20045;-75
2023/09/26 05:47:07;;;;;;;0.35;0.30;;;20.90;73.50;;;;;;5062856;28;20053;-75
2023/09/26 05:49:33;;;;;;;0.45;0.45;;;20.90;73.50;;;;;;5064486;28;20514;-75
2023/09/26 05:51:58;;;;;;;0.40;0.40;;;20.90;73.50;;;;;;5064988;28;20039;-75
2023/09/26 05:54:24;;;;;;;1.10;0.60;;;20.90;73.20;;;;;;4712359;28;10000081;-77
2023/09/26 05:56:50;;;;;;;0.50;0.50;;;20.90;72.90;;;;;;5056807;28;20037;-76
2023/09/26 05:59:15;;;;;;;0.35;0.35;;;20.90;72.90;;;;;;5059197;28;20045;-76
2023/09/26 06:01:41;;;;;;;0.60;0.60;;;20.90;73.00;;;;;;5064592;28;20510;-76
2023/09/26 06:04:07;;;;;;;0.57;0.57;;;20.90;73.00;;;;;;5062500;28;20057;-76
2023/09/26 06:06:33;;;;;;;0.50;0.50;;;20.90;72.80;;;;;;5053871;28;20075;-77
2023/09/26 06:08:58;;;;;;;1.85;0.40;;;21.00;72.90;;;;;;5058957;28;20803;-77
2023/09/26 06:11:24;;;;;;;0.30;0.30;;;20.90;72.70;;;;;;5062250;28;20045;-77
2023/09/26 06:13:52;;;;;;;1.77;0.40;;;20.90;72.90;;;;;;5057015;28;20040;-77
2023/09/26 06:16:18;;;;;;;0.65;0.65;;;20.90;72.80;;;;;;5086387;28;20119;-78
2023/09/26 06:18:44;;;;;;;0.65;0.63;;;20.90;72.80;;;;;;5027530;28;20121;-78
2023/09/26 06:21:10;;;;;;;0.82;0.70;;;20.90;73.30;;;;;;5058966;28;20152;-77
2023/09/26 06:23:36;;;;;;;1.63;0.98;;;20.90;73.60;;;;;;5057538;28;20037;-78
2023/09/26 06:26:02;;;;;;;0.80;0.80;;;20.90;73.80;;;;;;5062100;28;20036;-76
2023/09/26 06:28:28;;;;;;;1.10;1.10;;;20.80;74.00;;;;;;5063825;28;20094;-76
2023/09/26 06:30:53;;;;;;;0.82;0.82;;;20.80;74.00;;;;;;5059713;28;20071;-77
2023/09/26 06:33:19;;;;;;;1.77;1.10;;;20.80;74.30;;;;;;5055679;28;20091;-77
2023/09/26 06:35:45;;;;;;;1.48;1.00;;;20.80;74.30;;;;;;5057308;28;20048;-78
2023/09/26 06:38:11;;;;;;;0.73;0.73;;;20.80;74.30;;;;;;5055443;28;20071;-75
2023/09/26 06:40:37;;;;;;;1.75;0.90;;;20.60;74.90;;;;;;5061652;28;20513;-75
2023/09/26 06:43:03;;;;;;;1.40;1.10;;;20.70;75.00;;;;;;5059640;28;20082;-77
2023/09/26 06:45:29;;;;;;;1.00;1.00;;;20.70;75.00;;;;;;5058352;28;20052;-76
2023/09/26 06:47:54;;;;;;;1.23;1.00;;;20.60;75.30;;;;;;5056054;28;20056;-76
2023/09/26 06:50:21;;;;;;;1.88;0.90;;;20.60;75.40;;;;;;5056873;28;20036;-76
2023/09/26 06:52:47;;;;;;;3.17;1.58;;;20.60;76.00;;;;;;5060913;28;20032;-76
2023/09/26 06:55:13;;;;;;;1.27;0.95;;;20.60;75.90;;;;;;5066666;28;20032;-76
2023/09/26 06:57:38;;;;;;;2.20;0.90;;;20.60;75.70;;;;;;5063380;28;20585;-76
2023/09/26 07:00:16;;;;;;;0.85;0.80;;;20.70;75.80;;;;;;5060990;28;20882;-76
2023/09/26 07:02:45;;;;;;;0.80;0.80;;;20.70;76.10;;;;;;5062202;28;20552;-76
2023/09/26 07:05:11;;;;;;;0.80;0.80;;;20.70;76.10;;;;;;5065519;28;20075;-76
2023/09/26 07:07:38;;;;;;;2.63;1.50;;;20.70;76.10;;;;;;5065646;28;20470;-77
2023/09/26 07:10:05;;;;;;;2.25;0.70;;;20.70;76.20;;;;;;5069157;28;20049;-77
2023/09/26 07:12:30;;;;;;;2.05;0.60;;;20.70;76.40;;;;;;5061853;28;20083;-76
2023/09/26 07:14:56;;;;;;;1.95;1.08;;;20.80;76.40;;;;;;5061517;28;20474;-76
2023/09/26 07:17:22;;;;;;;3.10;0.80;;;20.80;76.50;;;;;;5063085;28;20537;-77
2023/09/26 07:19:51;;;;;;;1.30;0.80;;;20.80;76.30;;;;;;5060782;28;20044;-77
2023/09/26 07:22:17;;;;;;;0.80;0.80;;;20.80;76.00;;;;;;5065375;28;20119;-77
2023/09/26 07:24:47;;;;;;;1.80;0.70;;;20.80;75.90;;;;;;5063901;28;20552;-76
2023/09/26 07:27:12;;;;;;;1.15;0.80;;;20.80;75.90;;;;;;5063830;28;20048;-76
2023/09/26 07:29:38;;;;;;;1.05;0.70;;;20.80;76.10;;;;;;5065467;28;20051;-76
2023/09/26 07:32:04;;;;;;;0.70;0.70;;;20.80;76.00;;;;;;5067105;28;20344;-76
2023/09/26 07:34:29;;;;;;;1.80;0.70;;;20.80;76.00;;;;;;5063643;28;20088;-76
2023/09/26 07:36:55;;;;;;;1.95;0.68;;;20.80;76.10;;;;;;5062755;28;20095;-76
2023/09/26 07:39:20;;;;;;;1.92;1.10;;;20.80;76.00;;;;;;5061725;28;20067;-76
2023/09/26 07:41:47;;;;;;;1.02;0.90;;;20.80;76.00;;;;;;5062172;28;20506;-76
2023/09/26 07:44:12;;;;;;;0.40;0.40;;;20.80;75.80;;;;;;5064868;28;20041;-76
2023/09/26 07:46:38;;;;;;;0.52;0.52;;;20.80;75.50;;;;;;5064636;28;20456;-76
2023/09/26 07:49:03;;;;;;;1.52;0.70;;;20.80;75.70;;;;;;5064302;28;20064;-76
2023/09/26 07:51:29;;;;;;;1.13;0.90;;;20.80;75.50;;;;;;5058702;28;20055;-76
2023/09/26 07:53:55;;;;;;;0.50;0.50;;;20.80;75.40;;;;;;5062859;28;20044;-76
2023/09/26 07:56:20;;;;;;;1.42;0.60;;;20.80;75.50;;;;;;5062587;28;20040;-76
2023/09/26 07:58:46;;;;;;;0.80;0.80;;;20.80;75.30;;;;;;5063417;28;20497;-76
2023/09/26 08:01:11;;;;;;;0.88;0.82;;;20.90;75.40;;;;;;5066897;28;20071;-76
2023/09/26 08:03:43;;;;;;;0.60;0.60;;;20.90;75.00;;;;;;5063544;28;20517;-76
2023/09/26 08:06:09;;;;;;;0.57;0.57;;;20.90;74.80;;;;;;5061190;28;20136;-76
2023/09/26 08:08:35;;;;;;;2.95;0.60;;;20.90;74.80;;;;;;5059791;28;20405;-77
2023/09/26 08:11:08;;;;;;;0.82;0.70;;;20.90;74.70;;;;;;5064495;28;20103;-76
2023/09/26 08:13:34;;;;;;;0.40;0.40;;;20.90;74.70;;;;;;5062919;28;20055;-76
2023/09/26 08:16:00;;;;;;;0.63;0.63;;;20.90;74.60;;;;;;5059772;28;20033;-76
2023/09/26 08:18:25;;;;;;;1.00;0.50;;;20.90;74.60;;;;;;5063448;28;20044;-76
2023/09/26 08:20:55;;;;;;;0.98;0.50;;;21.00;74.40;;;;;;5060271;28;20072;-76
2023/09/26 08:23:21;;;;;;;0.50;0.50;;;21.00;74.40;;;;;;5061968;28;20028;-77
2023/09/26 08:25:47;;;;;;;0.47;0.47;;;21.00;74.30;;;;;;5062473;28;20062;-76
2023/09/26 08:28:12;;;;;;;0.65;0.30;;;21.00;74.20;;;;;;5062342;28;20634;-76
2023/09/26 08:30:38;;;;;;;0.55;0.55;;;21.00;74.20;;;;;;5060106;28;20049;-76
2023/09/26 08:33:03;;;;;;;0.70;0.70;;;21.00;74.10;;;;;;5064448;28;20501;-76
2023/09/26 08:35:31;;;;;;;1.15;0.70;;;21.00;74.10;;;;;;5061300;28;20331;-76
2023/09/26 08:37:57;;;;;;;1.55;0.40;;;21.00;74.20;;;;;;5063542;28;20025;-76
2023/09/26 08:40:24;;;;;;;0.47;0.47;;;21.00;74.00;;;;;;5066148;28;20047;-76
2023/09/26 08:42:52;;;;;;;0.50;0.50;;;21.00;74.00;;;;;;5062111;28;20387;-76
2023/09/26 08:45:17;;;;;;;1.85;0.60;;;21.00;74.00;;;;;;5062241;28;20041;-76
2023/09/26 08:47:43;;;;;;;0.93;0.70;;;21.10;74.10;;;;;;5060445;28;20410;-76
2023/09/26 08:50:09;;;;;;;0.57;0.50;;;21.10;73.80;;;;;;5062554;28;20041;-76
2023/09/26 08:52:35;;;;;;;0.40;0.40;;;21.10;74.00;;;;;;5062720;28;21077;-77
2023/09/26 08:55:01;;;;;;;0.60;0.60;;;21.10;73.90;;;;;;5061163;28;20041;-77
2023/09/26 08:57:26;;;;;;;0.55;0.55;;;21.10;73.90;;;;;;5060639;28;20048;-76
2023/09/26 08:59:53;;;;;;;1.00;0.50;;;21.10;73.90;;;;;;5063296;28;20047;-76
2023/09/26 09:02:19;;;;;;;0.60;0.40;;;21.10;73.80;;;;;;5062216;28;20040;-76
2023/09/26 09:04:44;;;;;;;0.50;0.50;;;21.10;73.80;;;;;;5061099;28;20098;-76
2023/09/26 09:07:11;;;;;;;0.70;0.60;;;21.10;73.60;;;;;;5062493;28;20059;-76
2023/09/26 09:09:37;;;;;;;0.43;0.43;;;21.10;73.70;;;;;;5060415;28;20506;-76
2023/09/26 09:12:20;;;;;;;0.65;0.65;;;21.10;73.40;;;;;;5062009;28;20028;-76
2023/09/26 09:14:46;;;;;;;0.45;0.45;;;21.10;73.70;;;;;;5045302;28;20065;-76
2023/09/26 09:17:11;;;;;;;0.60;0.60;;;21.10;73.50;;;;;;5060545;28;20119;-76
2023/09/26 09:19:47;;;;;;;0.40;0.40;;;21.10;73.50;;;;;;5044538;28;20080;-76
2023/09/26 09:22:17;;;;;;;0.40;0.40;;;21.10;73.40;;;;;;5065027;28;20044;-76
2023/09/26 09:24:43;;;;;;;0.50;0.50;;;21.10;73.30;;;;;;5059575;28;20438;-76
2023/09/26 09:27:09;;;;;;;0.50;0.50;;;21.10;73.10;;;;;;5058492;28;20052;-77
2023/09/26 09:29:35;;;;;;;0.40;0.35;;;21.20;73.00;;;;;;5059894;28;20433;-76
2023/09/26 09:32:01;;;;;;;0.40;0.40;;;21.20;73.00;;;;;;5062218;28;20079;-76
2023/09/26 09:34:27;;;;;;;0.40;0.38;;;21.20;73.10;;;;;;5062824;28;20072;-76
2023/09/26 09:36:58;;;;;;;0.45;0.45;;;21.20;73.00;;;;;;5061957;28;20106;-76
2023/09/26 09:39:24;;;;;;;0.70;0.50;;;21.30;73.00;;;;;;5061595;28;20040;-76
2023/09/26 09:41:50;;;;;;;0.77;0.30;;;21.30;72.80;;;;;;5059506;28;20418;-76
2023/09/26 09:44:16;;;;;;;0.50;0.50;;;21.30;73.20;;;;;;5046404;28;20476;-76
2023/09/26 09:46:42;;;;;;;0.38;0.32;;;21.30;72.90;;;;;;5063094;28;20048;-76
2023/09/26 09:49:11;;;;;;;0.40;0.40;;;21.30;73.10;;;;;;5062653;28;20036;-76
2023/09/26 09:51:42;;;;;;;1.85;0.50;;;21.30;73.00;;;;;;5061853;28;20449;-76
2023/09/26 09:54:10;;;;;;;0.52;0.50;;;21.30;72.90;;;;;;5086415;28;20447;-76
2023/09/26 09:56:36;;;;;;;0.65;0.60;;;21.30;72.80;;;;;;5058202;28;20052;-76
2023/09/26 09:59:05;;;;;;;0.40;0.40;;;21.30;72.90;;;;;;5060940;28;20037;-76
2023/09/26 10:01:33;;;;;;;0.40;0.40;;;21.30;72.80;;;;;;5078542;28;20389;-76
2023/09/26 10:03:59;;;;;;;0.50;0.40;;;21.40;73.20;;;;;;5055506;28;20086;-75
2023/09/26 10:06:25;;;;;;;0.82;0.50;;;21.30;73.00;;;;;;5055334;28;20637;-75
2023/09/26 10:08:51;;;;;;;0.93;0.50;;;21.40;72.70;;;;;;5061763;28;20590;-75
2023/09/26 10:11:17;;;;;;;0.70;0.47;;;21.40;73.20;;;;;;5056451;28;20057;-75
2023/09/26 10:13:42;;;;;;;0.40;0.40;;;21.40;72.80;;;;;;5062978;28;20044;-75
2023/09/26 10:16:11;;;;;;;0.43;0.35;;;21.40;73.40;;;;;;5063088;28;20384;-75
2023/09/26 10:18:38;;;;;;;0.45;0.40;;;21.40;72.80;;;;;;5056410;28;20190;-75
2023/09/26 10:21:05;;;;;;;0.55;0.50;;;21.40;73.00;;;;;;5062679;28;20044;-75
2023/09/26 10:23:30;;;;;;;0.43;0.40;;;21.40;72.80;;;;;;5057524;28;20078;-75
2023/09/26 10:25:56;;;;;;;0.50;0.50;;;21.30;73.20;;;;;;5062600;28;20117;-75
2023/09/26 10:28:22;;;;;;;1.15;0.50;;;21.40;72.80;;;;;;5064151;28;20063;-76
2023/09/26 10:30:53;;;;;;;0.45;0.40;;;21.40;73.00;;;;;;5059797;28;20080;-75
2023/09/26 10:33:19;;;;;;;0.30;0.30;;;21.40;72.70;;;;;;5062418;28;20044;-75
2023/09/26 10:35:45;;;;;;;0.73;0.38;;;21.40;72.70;;;;;;5061616;28;20040;-75
2023/09/26 10:38:18;;;;;;;0.65;0.65;;;21.40;72.70;;;;;;5065725;28;20041;-75
2023/09/26 10:40:44;;;;;;;0.50;0.50;;;21.40;72.60;;;;;;5062651;28;20509;-75
2023/09/26 10:43:10;;;;;;;1.23;0.47;;;21.40;73.00;;;;;;5064926;28;20066;-75
2023/09/26 10:45:35;;;;;;;0.50;0.50;;;21.40;72.80;;;;;;5063728;28;20036;-75
2023/09/26 10:48:05;;;;;;;0.40;0.40;;;21.40;72.80;;;;;;5060842;28;20414;-75
2023/09/26 10:50:31;;;;;;;0.32;0.32;;;21.40;73.00;;;;;;5061148;28;20044;-75
2023/09/26 10:52:57;;;;;;;0.80;0.50;;;21.40;72.90;;;;;;5064061;28;20051;-75
2023/09/26 10:55:23;;;;;;;0.57;0.43;;;21.40;72.80;;;;;;5065786;28;20127;-75
2023/09/26 10:57:51;;;;;;;0.70;0.68;;;21.40;72.80;;;;;;5064855;28;20047;-75
2023/09/26 11:00:17;;;;;;;0.40;0.30;;;21.40;72.60;;;;;;5047234;28;20036;-75
2023/09/26 11:02:43;;;;;;;0.47;0.40;;;21.50;73.00;;;;;;5061304;28;20052;-75
2023/09/26 11:05:10;;;;;;;0.40;0.38;;;21.40;72.80;;;;;;5048238;28;20037;-75
2023/09/26 11:07:40;;;;;;;0.30;0.30;;;21.40;72.60;;;;;;5063722;28;20062;-75
2023/09/26 11:10:13;;;;;;;0.52;0.50;;;21.50;72.50;;;;;;5066414;28;20082;-75
2023/09/26 11:12:38;;;;;;;0.30;0.30;;;21.50;72.50;;;;;;5064758;28;20048;-75
2023/09/26 11:15:05;;;;;;;0.45;0.30;;;21.50;72.30;;;;;;5062449;28;20037;-75
2023/09/26 11:17:31;;;;;;;0.40;0.40;;;21.50;72.40;;;;;;5062981;28;20032;-75
2023/09/26 11:19:57;;;;;;;0.43;0.38;;;21.50;72.50;;;;;;5063649;28;20080;-75
2023/09/26 11:22:24;;;;;;;0.50;0.50;;;21.50;72.50;;;;;;5065400;28;20457;-75
2023/09/26 11:25:02;;;;;;;0.45;0.43;;;21.60;72.40;;;;;;5061584;28;20048;-75
2023/09/26 11:27:27;;;;;;;0.55;0.50;;;21.50;72.20;;;;;;5061991;28;20033;-75
2023/09/26 11:29:53;;;;;;;0.40;0.40;;;21.60;72.30;;;;;;5060309;28;20409;-75
2023/09/26 11:32:19;;;;;;;0.40;0.40;;;21.60;72.30;;;;;;5065025;28;20060;-75
2023/09/26 11:34:44;;;;;;;0.47;0.47;;;21.60;72.40;;;;;;5065592;28;20055;-75
2023/09/26 11:37:10;;;;;;;0.50;0.50;;;21.60;72.10;;;;;;5063170;28;20565;-78
2023/09/26 11:39:36;;;;;;;0.50;0.50;;;21.60;72.10;;;;;;5067821;28;20160;-77
2023/09/26 11:42:05;;;;;;;0.50;0.40;;;21.70;73.00;;;;;;5063211;28;20032;-74
2023/09/26 11:44:31;;;;;;;0.60;0.60;;;21.70;74.90;;;;;;5063684;28;20044;-75
2023/09/26 11:46:56;;;;;;;1.02;0.60;;;21.70;75.90;;;;;;5058609;28;20053;-75
2023/09/26 11:49:23;;;;;;;0.80;0.70;;;21.80;76.60;;;;;;5063098;28;20517;-75
2023/09/26 11:51:48;;;;;;;0.75;0.75;;;21.80;75.50;;;;;;5060586;28;20032;-75
2023/09/26 11:54:14;;;;;;;2.05;0.52;;;21.80;75.00;;;;;;5063845;28;20447;-78
2023/09/26 11:56:46;;;;;;;1.27;0.93;;;21.80;75.80;;;;;;5061638;28;20024;-77
2023/09/26 11:59:12;;;;;;;1.00;0.70;;;21.80;75.30;;;;;;5063756;28;20041;-77
2023/09/26 12:01:41;;;;;;;0.93;0.50;;;21.70;74.20;;;;;;5061632;28;20048;-77
2023/09/26 12:04:09;;;;;;;1.33;1.00;;;21.70;74.20;;;;;;5060882;28;20033;-77
2023/09/26 12:06:34;;;;;;;2.65;0.98;;;21.70;74.10;;;;;;5057638;28;20498;-78
2023/09/26 12:09:00;;;;;;;0.98;0.50;;;21.70;73.90;;;;;;5058544;28;20043;-78
2023/09/26 12:11:26;;;;;;;1.17;0.50;;;21.70;73.80;;;;;;5062967;28;20514;-77
2023/09/26 12:13:51;;;;;;;0.65;0.65;;;21.70;73.70;;;;;;5059824;28;20403;-77
2023/09/26 12:16:17;;;;;;;1.10;0.50;;;21.70;73.70;;;;;;5066309;28;20427;-77
2023/09/26 12:18:42;;;;;;;0.68;0.50;;;21.70;74.40;;;;;;5057849;28;20085;-78
2023/09/26 12:21:09;;;;;;;0.50;0.32;;;21.70;73.20;;;;;;5060571;28;20407;-77
2023/09/26 12:23:35;;;;;;;0.50;0.50;;;21.70;73.30;;;;;;5061578;28;20052;-78
2023/09/26 12:26:01;;;;;;;0.50;0.50;;;21.70;73.20;;;;;;5061423;28;20040;-77
2023/09/26 12:28:26;;;;;;;0.40;0.40;;;21.70;73.20;;;;;;5063988;28;20138;-78
2023/09/26 12:30:52;;;;;;;0.50;0.50;;;21.70;73.20;;;;;;5059627;28;20045;-77
2023/09/26 12:33:18;;;;;;;0.60;0.60;;;21.70;73.20;;;;;;5061600;28;20032;-77
2023/09/26 12:35:44;;;;;;;0.80;0.60;;;21.70;73.10;;;;;;5059984;28;20051;-78
2023/09/26 12:38:10;;;;;;;0.63;0.63;;;21.70;73.10;;;;;;5062328;28;20029;-77
2023/09/26 12:40:35;;;;;;;1.88;0.50;;;21.70;73.20;;;;;;5062357;28;20036;-78